Terminal Aerodrome Forecast
Issued by NWS Jackson, KY

Home | Current Version | Previous Version | Text Only | Print | Product List | Glossary On
Versions: 1 2 3 4 5 6 7 8 9 10 11 12 13 14 15 16 17 18 19 20 21 22 23 24
000
FTUS43 KJKL 011653 AAE
TAFJKL
TAF AMD
KJKL 011653Z 0117/0212 VRB05KT P6SM VCSH OVC008
     FM011900 VRB05KT P6SM VCTS BKN007 BKN015CB
     FM012330 VRB05KT 6SM BR OVC010
     FM020600 VRB05KT 1SM BR BKN010=

USA.gov is the U.S. government's official web portal to all federal, state and local government web resources and services.